Time;durP1;ratioP1;P1;durP2;ratioP2;P2;SDS_P1;SDS_P2;PMS_P1;PMS_P2;Temp;Humidity;BMP_temperature;BMP_pressure;BME280_temperature;BME280_humidity;BME280_pressure;Samples;Min_cycle;Max_cycle;Signal;HPM_P1;HPM_P2
2022/07/01 00:01:28;;;;;;;;;1.00;1.00;;;;;;;;5075470;28;45498;-48
2022/07/01 00:03:53;;;;;;;;;0.50;0.50;;;;;;;;5074513;28;46672;-47
2022/07/01 00:06:19;;;;;;;;;0.00;0.00;;;;;;;;5074961;28;45849;-46
2022/07/01 00:08:45;;;;;;;;;3.00;1.00;;;;;;;;5074656;27;45367;-51
2022/07/01 00:11:10;;;;;;;;;0.00;0.00;;;;;;;;5075580;27;45460;-48
2022/07/01 00:13:35;;;;;;;;;1.75;0.50;;;;;;;;5078445;28;45454;-49
2022/07/01 00:16:01;;;;;;;;;0.75;0.75;;;;;;;;5078345;28;45323;-49
2022/07/01 00:18:26;;;;;;;;;2.25;0.00;;;;;;;;5077911;28;45676;-46
2022/07/01 00:20:51;;;;;;;;;1.00;1.00;;;;;;;;5077849;27;45341;-47
2022/07/01 00:23:17;;;;;;;;;0.00;0.00;;;;;;;;5057859;28;45319;-47
2022/07/01 00:25:43;;;;;;;;;0.75;0.75;;;;;;;;5074041;28;45476;-45
2022/07/01 00:28:08;;;;;;;;;1.00;1.00;;;;;;;;5057330;28;45346;-48
2022/07/01 00:30:33;;;;;;;;;0.75;0.75;;;;;;;;5058208;28;45411;-47
2022/07/01 00:32:58;;;;;;;;;1.00;1.00;;;;;;;;5058082;28;46644;-46
2022/07/01 00:35:24;;;;;;;;;1.75;1.00;;;;;;;;5058211;28;45371;-51
2022/07/01 00:37:49;;;;;;;;;3.00;1.50;;;;;;;;5058373;28;45298;-47
2022/07/01 00:40:14;;;;;;;;;0.75;0.75;;;;;;;;5058657;28;45660;-46
2022/07/01 00:42:40;;;;;;;;;1.00;1.00;;;;;;;;5058224;28;46500;-47
2022/07/01 00:45:07;;;;;;;;;0.40;0.40;;;;;;;;5073718;28;45258;-44
2022/07/01 00:47:32;;;;;;;;;0.40;0.40;;;;;;;;5078747;27;45446;-46
2022/07/01 00:49:57;;;;;;;;;1.00;1.00;;;;;;;;5099628;27;45536;-46
2022/07/01 00:52:23;;;;;;;;;0.00;0.00;;;;;;;;5077259;27;46451;-46
2022/07/01 00:54:48;;;;;;;;;2.00;1.00;;;;;;;;5078402;28;45421;-48
2022/07/01 00:57:13;;;;;;;;;0.50;0.50;;;;;;;;5078388;28;45257;-47
2022/07/01 00:59:39;;;;;;;;;1.00;1.00;;;;;;;;5078588;28;45390;-47
2022/07/01 01:02:04;;;;;;;;;1.00;1.00;;;;;;;;5078251;27;46721;-45
2022/07/01 01:04:29;;;;;;;;;1.00;1.00;;;;;;;;5075327;27;45417;-46
2022/07/01 01:06:55;;;;;;;;;1.00;1.00;;;;;;;;5074098;28;45302;-48
2022/07/01 01:09:21;;;;;;;;;1.00;1.00;;;;;;;;5057937;28;45509;-48
2022/07/01 01:11:46;;;;;;;;;1.75;0.75;;;;;;;;5073152;28;45618;-52
2022/07/01 01:14:11;;;;;;;;;2.50;1.00;;;;;;;;5073492;28;45446;-49
2022/07/01 01:16:38;;;;;;;;;0.00;0.00;;;;;;;;5057822;28;45400;-47
2022/07/01 01:19:07;;;;;;;;;1.40;1.40;;;;;;;;5058152;28;45367;-46
2022/07/01 01:21:33;;;;;;;;;1.20;1.20;;;;;;;;5057127;28;46613;-46
2022/07/01 01:23:58;;;;;;;;;1.00;0.40;;;;;;;;5057504;28;45219;-48
2022/07/01 01:26:25;;;;;;;;;2.00;1.00;;;;;;;;5057232;28;45300;-48
2022/07/01 01:28:50;;;;;;;;;0.60;0.60;;;;;;;;5057401;28;45397;-48
2022/07/01 01:31:15;;;;;;;;;2.00;1.00;;;;;;;;5057378;28;46861;-46
2022/07/01 01:33:41;;;;;;;;;1.00;1.00;;;;;;;;5072375;28;45468;-46
2022/07/01 01:36:09;;;;;;;;;1.50;1.50;;;;;;;;5057326;28;45682;-43
2022/07/01 01:38:34;;;;;;;;;1.00;1.00;;;;;;;;5072769;28;45382;-47
2022/07/01 01:41:00;;;;;;;;;1.00;1.00;;;;;;;;5057476;28;45849;-47
2022/07/01 01:43:25;;;;;;;;;1.25;1.25;;;;;;;;5056239;28;45266;-47
2022/07/01 01:45:50;;;;;;;;;1.00;1.00;;;;;;;;5056755;28;45243;-48
2022/07/01 01:48:15;;;;;;;;;2.00;2.00;;;;;;;;5057340;28;45317;-46
2022/07/01 01:50:41;;;;;;;;;0.00;0.00;;;;;;;;5056879;28;45981;-45
2022/07/01 01:53:06;;;;;;;;;1.00;1.00;;;;;;;;5075977;28;45353;-42
2022/07/01 01:55:31;;;;;;;;;1.00;0.00;;;;;;;;5077290;28;45306;-42
2022/07/01 01:57:56;;;;;;;;;0.75;0.75;;;;;;;;5077250;27;45462;-46
2022/07/01 02:00:22;;;;;;;;;1.00;1.00;;;;;;;;5077003;27;46299;-46
2022/07/01 02:02:47;;;;;;;;;2.00;1.25;;;;;;;;5066678;27;45973;-49
2022/07/01 02:05:14;;;;;;;;;0.50;0.50;;;;;;;;5073991;28;45368;-49
2022/07/01 02:07:39;;;;;;;;;2.20;1.80;;;;;;;;5076104;27;45639;-48
2022/07/01 02:10:05;;;;;;;;;1.25;1.25;;;;;;;;5075569;27;46345;-47
2022/07/01 02:12:31;;;;;;;;;0.50;0.50;;;;;;;;5071640;28;45237;-42
2022/07/01 02:14:57;;;;;;;;;1.00;1.00;;;;;;;;5076837;27;45506;-45
2022/07/01 02:17:22;;;;;;;;;0.00;0.00;;;;;;;;5074424;28;45319;-47
2022/07/01 02:19:47;;;;;;;;;0.00;0.00;;;;;;;;5076736;28;45984;-47
2022/07/01 02:22:13;;;;;;;;;0.00;0.00;;;;;;;;5076253;28;45367;-49
2022/07/01 02:24:38;;;;;;;;;1.00;1.00;;;;;;;;5076916;28;45363;-47
2022/07/01 02:27:03;;;;;;;;;0.00;0.00;;;;;;;;5077065;28;45548;-47
2022/07/01 02:29:30;;;;;;;;;0.00;0.00;;;;;;;;5075182;28;45486;-45
2022/07/01 02:31:55;;;;;;;;;1.00;1.00;;;;;;;;5076547;27;45430;-44
2022/07/01 02:34:20;;;;;;;;;1.00;1.00;;;;;;;;5076508;28;45378;-47
2022/07/01 02:36:46;;;;;;;;;2.00;1.00;;;;;;;;5076674;28;45409;-46
2022/07/01 02:39:11;;;;;;;;;1.00;0.00;;;;;;;;5076220;28;45960;-45
2022/07/01 02:42:22;;;;;;;;;2.75;0.00;;;;;;;;5076629;28;45429;-46
2022/07/01 02:44:22;;;;;;;;;0.00;0.00;;;;;;;;5076107;28;45731;-46
2022/07/01 02:46:47;;;;;;;;;1.75;1.75;;;;;;;;5076705;27;45369;-49
2022/07/01 02:49:12;;;;;;;;;1.00;1.00;;;;;;;;5076118;28;46015;-46
2022/07/01 02:51:38;;;;;;;;;1.50;1.00;;;;;;;;5076370;28;45433;-44
2022/07/01 02:54:04;;;;;;;;;1.50;0.50;;;;;;;;5076257;28;45195;-46
2022/07/01 02:56:30;;;;;;;;;0.00;0.00;;;;;;;;5076373;27;45329;-47
2022/07/01 02:58:55;;;;;;;;;1.00;1.00;;;;;;;;5076092;27;46475;-48
2022/07/01 03:01:20;;;;;;;;;1.00;1.00;;;;;;;;5075902;27;45305;-49
2022/07/01 03:03:46;;;;;;;;;1.00;1.00;;;;;;;;5076212;27;45299;-48
2022/07/01 03:06:11;;;;;;;;;1.50;1.50;;;;;;;;5076316;27;45592;-48
2022/07/01 03:08:36;;;;;;;;;1.00;1.00;;;;;;;;5075785;27;46530;-49
2022/07/01 03:11:01;;;;;;;;;2.75;2.75;;;;;;;;5074553;28;45306;-46
2022/07/01 03:13:27;;;;;;;;;2.00;1.00;;;;;;;;5075872;28;45234;-44
2022/07/01 03:15:52;;;;;;;;;2.00;2.00;;;;;;;;5076334;28;45514;-44
2022/07/01 03:18:17;;;;;;;;;1.00;1.00;;;;;;;;5075841;27;46633;-46
2022/07/01 03:20:43;;;;;;;;;1.25;1.25;;;;;;;;5061778;27;45324;-47
2022/07/01 03:23:08;;;;;;;;;1.50;1.50;;;;;;;;5055877;28;45359;-47
2022/07/01 03:25:35;;;;;;;;;1.75;1.75;;;;;;;;5055708;28;45632;-44
2022/07/01 03:28:03;;;;;;;;;1.60;1.00;;;;;;;;5055710;28;46755;-45
2022/07/01 03:30:28;;;;;;;;;2.20;2.20;;;;;;;;5055526;28;45229;-42
2022/07/01 03:32:53;;;;;;;;;1.75;1.75;;;;;;;;5055826;28;45243;-47
2022/07/01 03:35:39;;;;;;;;;4.00;2.75;;;;;;;;5056095;28;45419;-48
2022/07/01 03:38:04;;;;;;;;;2.00;2.00;;;;;;;;5055362;28;46894;-49
2022/07/01 03:40:30;;;;;;;;;1.50;1.50;;;;;;;;5055455;28;45391;-49
2022/07/01 03:42:55;;;;;;;;;2.50;2.00;;;;;;;;5055624;28;45364;-48
2022/07/01 03:45:20;;;;;;;;;2.00;2.00;;;;;;;;5037428;27;45691;-49
2022/07/01 03:47:46;;;;;;;;;1.00;1.00;;;;;;;;5075334;28;47002;-46
2022/07/01 03:50:11;;;;;;;;;2.25;2.25;;;;;;;;5075594;27;45354;-43
2022/07/01 03:52:37;;;;;;;;;3.50;2.75;;;;;;;;5075478;28;45954;-47
2022/07/01 03:55:02;;;;;;;;;3.00;3.00;;;;;;;;5075771;28;45334;-47
2022/07/01 03:57:27;;;;;;;;;2.00;2.00;;;;;;;;5074246;28;45782;-48
2022/07/01 03:59:53;;;;;;;;;3.00;2.00;;;;;;;;5075354;27;45418;-49
2022/07/01 04:02:18;;;;;;;;;2.25;2.25;;;;;;;;5075600;27;45479;-48
2022/07/01 04:04:44;;;;;;;;;3.50;3.00;;;;;;;;5075530;28;45410;-47
2022/07/01 04:07:09;;;;;;;;;4.25;4.00;;;;;;;;5078754;28;46309;-46
2022/07/01 04:09:34;;;;;;;;;2.00;2.00;;;;;;;;5077709;28;45444;-42
2022/07/01 04:11:59;;;;;;;;;6.00;3.00;;;;;;;;5077848;28;45384;-42
2022/07/01 04:14:25;;;;;;;;;2.50;2.50;;;;;;;;5079082;28;45576;-45
2022/07/01 04:16:51;;;;;;;;;2.00;2.00;;;;;;;;5058370;27;46130;-46
2022/07/01 04:19:16;;;;;;;;;2.40;2.40;;;;;;;;5097002;27;45397;-46
2022/07/01 04:24:26;;;;;;;;;4.60;3.60;;;;;;;;5099397;27;45825;-48
2022/07/01 04:26:52;;;;;;;;;4.00;3.00;;;;;;;;5098355;27;45932;-50
2022/07/01 04:29:17;;;;;;;;;3.50;2.50;;;;;;;;5098860;27;45394;-44
2022/07/01 04:31:43;;;;;;;;;4.00;4.00;;;;;;;;5098738;27;45361;-44
2022/07/01 04:34:08;;;;;;;;;2.75;2.75;;;;;;;;5099213;27;45739;-44
2022/07/01 04:36:34;;;;;;;;;6.75;3.50;;;;;;;;5098547;27;46441;-45
2022/07/01 04:38:59;;;;;;;;;2.75;2.75;;;;;;;;5098555;27;45414;-46
2022/07/01 04:44:08;;;;;;;;;4.00;3.20;;;;;;;;5098855;27;45334;-48
2022/07/01 04:46:34;;;;;;;;;3.00;3.00;;;;;;;;5098485;27;45343;-47
2022/07/01 04:48:59;;;;;;;;;4.00;3.00;;;;;;;;5097808;27;45451;-45
2022/07/01 04:51:24;;;;;;;;;3.25;3.25;;;;;;;;5073422;28;45356;-45
2022/07/01 04:53:50;;;;;;;;;7.00;4.75;;;;;;;;5077217;28;45669;-46
2022/07/01 04:56:15;;;;;;;;;2.50;2.50;;;;;;;;5076562;28;46014;-46
2022/07/01 04:58:40;;;;;;;;;4.25;3.75;;;;;;;;5077781;27;45372;-45
2022/07/01 05:01:06;;;;;;;;;4.25;2.75;;;;;;;;5059825;28;45369;-47
2022/07/01 05:03:31;;;;;;;;;3.50;2.75;;;;;;;;5076880;28;45539;-49
2022/07/01 05:05:57;;;;;;;;;3.25;3.00;;;;;;;;5077882;27;45353;-47
2022/07/01 05:08:22;;;;;;;;;3.00;3.00;;;;;;;;5077895;28;45387;-50
2022/07/01 05:10:47;;;;;;;;;3.00;3.00;;;;;;;;5077707;27;45321;-48
2022/07/01 05:13:13;;;;;;;;;2.25;2.25;;;;;;;;5078244;27;45303;-46
2022/07/01 05:15:38;;;;;;;;;2.00;2.00;;;;;;;;5076648;28;45929;-45
2022/07/01 05:23:31;;;;;;;;;1.00;1.00;;;;;;;;5077595;28;45314;-41
2022/07/01 05:25:57;;;;;;;;;3.00;3.00;;;;;;;;5077494;27;45596;-42
2022/07/01 05:28:22;;;;;;;;;2.00;2.00;;;;;;;;5077344;28;45280;-45
2022/07/01 05:30:47;;;;;;;;;1.00;1.00;;;;;;;;5077747;28;45353;-50
2022/07/01 05:33:12;;;;;;;;;3.00;2.25;;;;;;;;5077528;27;45365;-53
2022/07/01 05:35:38;;;;;;;;;5.25;2.75;;;;;;;;5077320;28;47510;-49
2022/07/01 05:38:03;;;;;;;;;2.75;1.75;;;;;;;;5077527;27;45232;-47
2022/07/01 05:40:28;;;;;;;;;2.00;2.00;;;;;;;;5077079;28;45412;-46
2022/07/01 05:42:53;;;;;;;;;3.50;2.00;;;;;;;;5077780;28;45311;-49
2022/07/01 05:45:19;;;;;;;;;1.00;1.00;;;;;;;;5076776;27;45505;-45
2022/07/01 05:47:44;;;;;;;;;0.50;0.50;;;;;;;;5077280;28;45407;-44
2022/07/01 05:50:09;;;;;;;;;1.00;1.00;;;;;;;;5077114;27;45301;-46
2022/07/01 05:52:34;;;;;;;;;2.00;1.00;;;;;;;;5076187;28;45330;-48
2022/07/01 05:55:00;;;;;;;;;1.00;1.00;;;;;;;;5076860;28;46235;-49
2022/07/01 05:57:25;;;;;;;;;1.00;1.00;;;;;;;;5076987;27;45254;-47
2022/07/01 05:59:50;;;;;;;;;4.00;2.75;;;;;;;;5077132;27;45344;-46
2022/07/01 06:02:16;;;;;;;;;1.00;1.00;;;;;;;;5075789;27;45436;-47
2022/07/01 06:04:43;;;;;;;;;1.50;0.75;;;;;;;;5056324;28;46587;-47
2022/07/01 06:07:08;;;;;;;;;1.80;0.80;;;;;;;;5055048;28;45385;-42
2022/07/01 06:09:33;;;;;;;;;1.00;1.00;;;;;;;;5056483;28;45205;-47
2022/07/01 06:11:59;;;;;;;;;3.75;2.00;;;;;;;;5057031;28;45666;-46
2022/07/01 06:14:24;;;;;;;;;2.50;1.00;;;;;;;;5056123;28;45463;-49
2022/07/01 06:16:49;;;;;;;;;2.00;2.00;;;;;;;;5056034;28;45361;-47
2022/07/01 06:19:15;;;;;;;;;1.00;1.00;;;;;;;;5056844;28;45370;-48
2022/07/01 06:21:40;;;;;;;;;1.50;1.00;;;;;;;;5055795;27;46719;-49
2022/07/01 06:24:05;;;;;;;;;2.00;1.00;;;;;;;;5055999;27;45973;-47
2022/07/01 06:26:30;;;;;;;;;1.00;1.00;;;;;;;;5056342;28;45320;-45
2022/07/01 06:28:56;;;;;;;;;2.25;1.50;;;;;;;;5055665;28;45384;-42
2022/07/01 06:31:23;;;;;;;;;1.25;1.25;;;;;;;;5056115;27;45531;-48
2022/07/01 06:33:48;;;;;;;;;2.00;2.00;;;;;;;;5057998;27;45546;-52
2022/07/01 06:36:14;;;;;;;;;2.00;2.00;;;;;;;;5076997;27;45463;-47
2022/07/01 06:38:39;;;;;;;;;2.00;2.00;;;;;;;;5076701;27;45378;-50
2022/07/01 06:43:48;;;;;;;;;2.20;1.00;;;;;;;;5076089;28;45442;-49
2022/07/01 06:46:13;;;;;;;;;4.00;3.00;;;;;;;;5076987;27;45394;-48
2022/07/01 06:48:39;;;;;;;;;1.00;1.00;;;;;;;;5076388;28;45414;-47
2022/07/01 06:51:04;;;;;;;;;1.00;1.00;;;;;;;;5076522;27;45639;-48
2022/07/01 06:53:29;;;;;;;;;1.00;1.00;;;;;;;;5074989;28;46421;-47
2022/07/01 06:55:55;;;;;;;;;0.75;0.75;;;;;;;;5076060;28;45825;-46
2022/07/01 06:58:20;;;;;;;;;3.00;2.00;;;;;;;;5074784;28;45424;-48
2022/07/01 07:00:45;;;;;;;;;0.50;0.50;;;;;;;;5076230;28;45273;-49
2022/07/01 07:03:10;;;;;;;;;2.50;1.00;;;;;;;;5074792;28;46725;-48
2022/07/01 07:05:36;;;;;;;;;1.00;1.00;;;;;;;;5076175;28;45316;-49
2022/07/01 07:08:02;;;;;;;;;0.50;0.50;;;;;;;;5076222;27;45376;-49
2022/07/01 07:10:27;;;;;;;;;1.00;1.00;;;;;;;;5075066;28;45656;-48
2022/07/01 07:12:53;;;;;;;;;0.00;0.00;;;;;;;;5075644;28;45564;-47
2022/07/01 07:15:19;;;;;;;;;1.25;1.25;;;;;;;;5076075;27;45468;-44
2022/07/01 07:17:44;;;;;;;;;1.60;0.00;;;;;;;;5076104;27;45366;-49
2022/07/01 07:20:10;;;;;;;;;0.00;0.00;;;;;;;;5075048;28;45339;-45
2022/07/01 07:22:35;;;;;;;;;1.00;1.00;;;;;;;;5075935;27;45930;-46
2022/07/01 07:25:00;;;;;;;;;1.25;1.25;;;;;;;;5075442;28;45300;-47
2022/07/01 07:27:26;;;;;;;;;1.50;0.00;;;;;;;;5076406;27;45408;-47
2022/07/01 07:29:51;;;;;;;;;2.25;1.00;;;;;;;;5076276;28;45385;-47
2022/07/01 07:32:16;;;;;;;;;1.00;0.00;;;;;;;;5057438;27;46811;-47
2022/07/01 07:34:42;;;;;;;;;2.25;1.00;;;;;;;;5075031;28;45841;-45
2022/07/01 07:37:07;;;;;;;;;1.00;1.00;;;;;;;;5074606;27;45367;-46
2022/07/01 07:39:32;;;;;;;;;2.00;2.00;;;;;;;;5076461;28;45210;-49
2022/07/01 07:41:58;;;;;;;;;2.25;2.25;;;;;;;;5078954;28;46628;-48
2022/07/01 07:44:23;;;;;;;;;5.00;2.00;;;;;;;;5079102;28;45206;-50
2022/07/01 07:46:48;;;;;;;;;1.50;1.50;;;;;;;;5079249;28;45529;-48
2022/07/01 07:49:14;;;;;;;;;0.50;0.50;;;;;;;;5073010;27;45253;-49
2022/07/01 07:51:39;;;;;;;;;0.00;0.00;;;;;;;;5073425;28;45629;-49
2022/07/01 07:54:04;;;;;;;;;0.50;0.50;;;;;;;;5074555;27;45760;-47
2022/07/01 07:56:30;;;;;;;;;0.00;0.00;;;;;;;;5074912;28;45402;-44
2022/07/01 07:58:55;;;;;;;;;1.50;0.00;;;;;;;;5073752;27;45712;-46
2022/07/01 08:01:21;;;;;;;;;1.25;0.00;;;;;;;;5074004;28;45906;-52
2022/07/01 08:03:46;;;;;;;;;3.00;0.00;;;;;;;;5074811;27;45743;-50
2022/07/01 08:06:12;;;;;;;;;1.00;1.00;;;;;;;;5074731;27;45801;-50
2022/07/01 08:08:37;;;;;;;;;1.00;1.00;;;;;;;;5074829;27;45451;-50
2022/07/01 08:11:02;;;;;;;;;0.00;0.00;;;;;;;;5072931;28;46122;-53
2022/07/01 08:13:28;;;;;;;;;1.25;0.75;;;;;;;;5073095;27;45557;-51
2022/07/01 08:15:53;;;;;;;;;0.50;0.25;;;;;;;;5074539;27;45858;-48
2022/07/01 08:18:18;;;;;;;;;1.00;1.00;;;;;;;;5074676;27;45394;-46
2022/07/01 08:20:43;;;;;;;;;0.75;0.00;;;;;;;;5073428;27;45521;-49
2022/07/01 08:23:09;;;;;;;;;3.00;1.50;;;;;;;;5074432;28;45618;-49
2022/07/01 08:25:34;;;;;;;;;0.00;0.00;;;;;;;;5073798;28;45785;-51
2022/07/01 08:27:59;;;;;;;;;0.50;0.50;;;;;;;;5055564;27;45359;-50
2022/07/01 08:30:25;;;;;;;;;0.00;0.00;;;;;;;;5053549;28;46533;-48
2022/07/01 08:32:50;;;;;;;;;0.00;0.00;;;;;;;;5071759;27;45435;-50
2022/07/01 08:35:15;;;;;;;;;0.00;0.00;;;;;;;;5062342;27;45891;-46
2022/07/01 08:37:40;;;;;;;;;1.75;1.00;;;;;;;;5057937;27;45390;-50
2022/07/01 08:40:06;;;;;;;;;0.75;0.75;;;;;;;;5073989;28;46379;-45
2022/07/01 08:42:31;;;;;;;;;0.00;0.00;;;;;;;;5073602;27;45450;-46
2022/07/01 08:44:56;;;;;;;;;0.50;0.50;;;;;;;;5074066;27;45678;-48
2022/07/01 08:47:22;;;;;;;;;1.75;0.25;;;;;;;;5069125;28;45588;-52
2022/07/01 08:49:47;;;;;;;;;1.00;1.00;;;;;;;;5065313;27;45479;-51
2022/07/01 08:52:12;;;;;;;;;0.00;0.00;;;;;;;;5072155;27;45785;-53
2022/07/01 08:54:38;;;;;;;;;0.00;0.00;;;;;;;;5071293;27;45411;-49
2022/07/01 08:57:04;;;;;;;;;1.20;1.20;;;;;;;;5073511;27;45914;-49
2022/07/01 08:59:30;;;;;;;;;0.00;0.00;;;;;;;;5072229;27;46535;-47
2022/07/01 09:01:56;;;;;;;;;1.25;1.00;;;;;;;;5072510;27;45505;-46
2022/07/01 09:04:22;;;;;;;;;0.00;0.00;;;;;;;;5060407;27;45486;-50
2022/07/01 09:06:47;;;;;;;;;0.50;0.50;;;;;;;;5044947;28;45436;-49
2022/07/01 09:09:14;;;;;;;;;0.00;0.00;;;;;;;;5052658;28;46174;-54
2022/07/01 09:11:45;;;;;;;;;0.40;0.40;;;;;;;;5051521;28;45344;-51
2022/07/01 09:14:11;;;;;;;;;0.40;0.40;;;;;;;;5052693;28;45524;-47
2022/07/01 09:16:43;;;;;;;;;0.20;0.20;;;;;;;;5068041;28;45418;-49
2022/07/01 09:19:08;;;;;;;;;0.00;0.00;;;;;;;;5071528;27;45688;-49
2022/07/01 09:21:33;;;;;;;;;0.50;0.50;;;;;;;;5071076;28;45578;-51
2022/07/01 09:24:02;;;;;;;;;0.50;0.50;;;;;;;;5073207;27;45609;-45
2022/07/01 09:26:27;;;;;;;;;0.80;0.00;;;;;;;;5071413;27;46047;-45
2022/07/01 09:28:54;;;;;;;;;0.50;0.50;;;;;;;;5071825;28;46950;-48
2022/07/01 09:31:19;;;;;;;;;1.00;1.00;;;;;;;;5071821;28;45792;-50
2022/07/01 09:33:44;;;;;;;;;1.50;1.00;;;;;;;;5073535;28;45814;-50
2022/07/01 09:36:14;;;;;;;;;0.75;0.75;;;;;;;;5073267;28;45537;-52
2022/07/01 09:38:44;;;;;;;;;0.00;0.00;;;;;;;;5071722;28;45809;-46
2022/07/01 09:41:11;;;;;;;;;0.80;0.80;;;;;;;;5073211;28;45452;-49
2022/07/01 09:43:37;;;;;;;;;0.00;0.00;;;;;;;;5009773;27;45472;-55
2022/07/01 09:46:03;;;;;;;;;0.00;0.00;;;;;;;;5050109;27;45495;-49
2022/07/01 09:48:34;;;;;;;;;0.00;0.00;;;;;;;;5053562;28;45787;-49
2022/07/01 09:51:00;;;;;;;;;1.00;1.00;;;;;;;;5072305;28;45744;-47
2022/07/01 09:53:25;;;;;;;;;2.50;1.00;;;;;;;;5072819;28;45348;-49
2022/07/01 09:55:51;;;;;;;;;2.00;2.00;;;;;;;;5072018;28;45698;-52
2022/07/01 09:58:16;;;;;;;;;1.00;1.00;;;;;;;;5072788;28;47123;-50
2022/07/01 10:00:41;;;;;;;;;0.25;0.25;;;;;;;;5071869;27;45754;-50
2022/07/01 10:03:07;;;;;;;;;0.50;0.50;;;;;;;;5071963;27;45386;-46
2022/07/01 10:05:44;;;;;;;;;0.50;0.50;;;;;;;;5073240;27;45848;-45
2022/07/01 10:08:10;;;;;;;;;0.00;0.00;;;;;;;;5072575;27;46547;-46
2022/07/01 10:10:39;;;;;;;;;1.00;1.00;;;;;;;;5073117;27;45916;-46
2022/07/01 10:13:06;;;;;;;;;2.00;0.00;;;;;;;;5071560;27;45426;-44
2022/07/01 10:15:31;;;;;;;;;1.60;0.60;;;;;;;;5075580;28;45381;-46
2022/07/01 10:17:56;;;;;;;;;1.00;1.00;;;;;;;;5073917;28;46126;-49
2022/07/01 10:20:26;;;;;;;;;2.75;1.00;;;;;;;;5045256;27;45818;-52
2022/07/01 10:22:53;;;;;;;;;0.00;0.00;;;;;;;;5072190;27;45497;-51
2022/07/01 10:25:31;;;;;;;;;0.00;0.00;;;;;;;;5070624;27;46016;-50
2022/07/01 10:28:13;;;;;;;;;0.00;0.00;;;;;;;;5072008;27;45679;-50
2022/07/01 10:30:55;;;;;;;;;0.40;0.00;;;;;;;;5072672;28;45593;-51
2022/07/01 10:33:40;;;;;;;;;2.20;2.20;;;;;;;;5070977;28;45835;-53
2022/07/01 10:36:06;;;;;;;;;1.00;1.00;;;;;;;;5072721;27;45438;-50
2022/07/01 10:38:31;;;;;;;;;0.20;0.20;;;;;;;;5071134;27;46607;-49
2022/07/01 10:41:09;;;;;;;;;0.50;0.50;;;;;;;;5072254;27;45538;-50
2022/07/01 10:43:34;;;;;;;;;2.80;1.00;;;;;;;;5072489;27;45544;-54
2022/07/01 10:46:00;;;;;;;;;0.00;0.00;;;;;;;;5042786;27;45509;-54
2022/07/01 10:48:25;;;;;;;;;1.75;0.25;;;;;;;;5060823;28;46711;-51
2022/07/01 10:50:50;;;;;;;;;1.50;1.25;;;;;;;;5071982;28;45421;-51
2022/07/01 10:53:16;;;;;;;;;0.25;0.25;;;;;;;;5072299;27;45399;-53
2022/07/01 10:55:44;;;;;;;;;0.00;0.00;;;;;;;;5072603;28;45732;-52
2022/07/01 10:58:09;;;;;;;;;1.00;0.80;;;;;;;;5071859;27;46526;-47
2022/07/01 11:00:35;;;;;;;;;0.75;0.75;;;;;;;;5072302;27;45852;-47
2022/07/01 11:03:11;;;;;;;;;2.00;0.75;;;;;;;;5072200;27;45841;-47
2022/07/01 11:05:37;;;;;;;;;1.00;0.00;;;;;;;;5072438;27;45526;-50
2022/07/01 11:08:04;;;;;;;;;1.20;1.20;;;;;;;;5071849;27;46826;-51
2022/07/01 11:10:29;;;;;;;;;1.00;1.00;;;;;;;;5070649;27;45423;-48
2022/07/01 11:12:54;;;;;;;;;0.50;0.50;;;;;;;;5072069;28;45361;-48
2022/07/01 11:15:20;;;;;;;;;1.00;1.00;;;;;;;;5070485;28;45436;-49
2022/07/01 11:17:46;;;;;;;;;1.00;1.00;;;;;;;;5070214;28;46749;-50
2022/07/01 11:20:12;;;;;;;;;0.00;0.00;;;;;;;;5071998;27;45649;-48
2022/07/01 11:22:37;;;;;;;;;0.50;0.50;;;;;;;;5071772;27;45752;-48
2022/07/01 11:25:03;;;;;;;;;1.00;1.00;;;;;;;;5071629;27;45819;-53
2022/07/01 11:27:28;;;;;;;;;0.00;0.00;;;;;;;;5071439;27;45754;-51
2022/07/01 11:29:57;;;;;;;;;0.75;0.75;;;;;;;;5071403;27;45386;-48
2022/07/01 11:32:28;;;;;;;;;0.00;0.00;;;;;;;;5071651;27;45438;-49
2022/07/01 11:34:54;;;;;;;;;0.00;0.00;;;;;;;;5071678;27;45479;-50
2022/07/01 11:40:06;;;;;;;;;0.00;0.00;;;;;;;;5071421;28;45395;-49
2022/07/01 11:42:32;;;;;;;;;0.60;0.60;;;;;;;;5070314;27;45474;-48
2022/07/01 11:44:57;;;;;;;;;0.00;0.00;;;;;;;;5071321;28;45416;-52
2022/07/01 11:47:23;;;;;;;;;0.50;0.00;;;;;;;;5052026;27;46877;-52
2022/07/01 11:49:49;;;;;;;;;1.20;0.00;;;;;;;;5078007;27;45523;-49
2022/07/01 11:52:14;;;;;;;;;1.00;0.50;;;;;;;;5092095;27;45463;-50
2022/07/01 11:54:40;;;;;;;;;0.00;0.00;;;;;;;;5064312;28;45771;-48
2022/07/01 11:57:09;;;;;;;;;0.25;0.25;;;;;;;;5070996;27;45723;-49
2022/07/01 11:59:36;;;;;;;;;2.40;0.40;;;;;;;;5071099;27;45439;-52
2022/07/01 12:02:01;;;;;;;;;0.60;0.00;;;;;;;;5071177;27;45513;-52
2022/07/01 12:04:27;;;;;;;;;0.00;0.00;;;;;;;;5071375;27;45591;-48
2022/07/01 12:06:52;;;;;;;;;0.25;0.25;;;;;;;;5069414;28;45541;-49
2022/07/01 12:09:18;;;;;;;;;0.00;0.00;;;;;;;;5070735;27;45902;-48
2022/07/01 12:11:44;;;;;;;;;0.50;0.50;;;;;;;;5069830;28;45464;-46
2022/07/01 12:14:09;;;;;;;;;0.40;0.00;;;;;;;;5070134;27;45505;-48
2022/07/01 12:16:41;;;;;;;;;0.75;0.00;;;;;;;;5069785;28;46406;-49
2022/07/01 12:19:07;;;;;;;;;0.00;0.00;;;;;;;;5062255;28;46667;-48
2022/07/01 12:21:36;;;;;;;;;0.20;0.20;;;;;;;;5070438;27;45498;-48
2022/07/01 12:24:02;;;;;;;;;1.00;1.00;;;;;;;;5066922;28;45540;-49
2022/07/01 12:26:27;;;;;;;;;0.00;0.00;;;;;;;;5070549;27;46348;-45
2022/07/01 12:28:53;;;;;;;;;0.00;0.00;;;;;;;;5049414;27;45854;-49
2022/07/01 12:31:18;;;;;;;;;0.40;0.00;;;;;;;;5053084;28;45945;-47
2022/07/01 12:33:48;;;;;;;;;0.50;0.50;;;;;;;;5058978;28;45833;-49
2022/07/01 12:36:15;;;;;;;;;0.00;0.00;;;;;;;;5073501;27;46567;-48
2022/07/01 12:38:40;;;;;;;;;0.00;0.00;;;;;;;;5071937;28;46566;-46
2022/07/01 12:41:25;;;;;;;;;0.00;0.00;;;;;;;;5071696;27;45429;-47
2022/07/01 12:43:51;;;;;;;;;0.00;0.00;;;;;;;;5072132;28;45388;-48
2022/07/01 12:46:26;;;;;;;;;0.25;0.00;;;;;;;;5073108;28;45729;-50
2022/07/01 12:48:51;;;;;;;;;0.00;0.00;;;;;;;;5070813;28;46024;-49
2022/07/01 12:51:16;;;;;;;;;0.00;0.00;;;;;;;;5073141;28;45736;-47
2022/07/01 12:53:41;;;;;;;;;0.00;0.00;;;;;;;;5072538;27;45776;-47
2022/07/01 12:56:07;;;;;;;;;1.00;1.00;;;;;;;;5072351;28;46655;-48
2022/07/01 12:58:32;;;;;;;;;0.25;0.25;;;;;;;;5071752;28;45764;-47
2022/07/01 13:00:58;;;;;;;;;1.25;0.00;;;;;;;;5072785;28;45324;-49
2022/07/01 13:03:24;;;;;;;;;0.00;0.00;;;;;;;;5072811;27;45505;-47
2022/07/01 13:05:49;;;;;;;;;0.40;0.40;;;;;;;;5071752;27;45617;-48
2022/07/01 13:08:15;;;;;;;;;0.00;0.00;;;;;;;;5072706;27;45468;-48
2022/07/01 13:10:40;;;;;;;;;0.00;0.00;;;;;;;;5065780;28;45807;-51
2022/07/01 13:13:05;;;;;;;;;0.00;0.00;;;;;;;;5053393;28;45634;-47
2022/07/01 13:15:31;;;;;;;;;0.00;0.00;;;;;;;;5022072;27;45872;-48
2022/07/01 13:17:56;;;;;;;;;0.00;0.00;;;;;;;;5056490;27;45453;-48
2022/07/01 13:20:21;;;;;;;;;0.00;0.00;;;;;;;;5073535;27;45462;-48
2022/07/01 13:22:46;;;;;;;;;1.50;0.00;;;;;;;;5073545;28;45607;-48
2022/07/01 13:25:12;;;;;;;;;1.75;0.75;;;;;;;;5073125;28;45675;-47
2022/07/01 13:27:37;;;;;;;;;0.00;0.00;;;;;;;;5063642;27;45831;-47
2022/07/01 13:30:03;;;;;;;;;0.00;0.00;;;;;;;;5072670;27;45839;-47
2022/07/01 13:32:29;;;;;;;;;0.00;0.00;;;;;;;;5073481;27;45752;-47
2022/07/01 13:34:54;;;;;;;;;0.00;0.00;;;;;;;;5073050;27;45441;-47
2022/07/01 13:37:19;;;;;;;;;0.00;0.00;;;;;;;;5072683;28;45410;-48
2022/07/01 13:39:44;;;;;;;;;1.50;1.50;;;;;;;;5071361;28;45811;-46
2022/07/01 13:42:10;;;;;;;;;3.00;2.00;;;;;;;;5072829;27;45640;-47
2022/07/01 13:44:35;;;;;;;;;0.00;0.00;;;;;;;;5072986;28;46046;-50
2022/07/01 13:47:01;;;;;;;;;0.00;0.00;;;;;;;;5073383;28;45806;-48
2022/07/01 13:49:27;;;;;;;;;2.80;2.80;;;;;;;;5073047;27;45828;-48
2022/07/01 13:51:52;;;;;;;;;0.40;0.40;;;;;;;;5072204;28;45630;-49
2022/07/01 13:54:17;;;;;;;;;0.00;0.00;;;;;;;;5071631;27;45686;-48
2022/07/01 13:56:45;;;;;;;;;0.00;0.00;;;;;;;;5073070;28;45446;-46
2022/07/01 13:59:10;;;;;;;;;0.00;0.00;;;;;;;;5073399;27;45605;-46
2022/07/01 14:01:35;;;;;;;;;0.00;0.00;;;;;;;;5072846;28;45652;-48
2022/07/01 14:04:01;;;;;;;;;0.00;0.00;;;;;;;;5072973;27;45839;-47
2022/07/01 14:06:26;;;;;;;;;0.00;0.00;;;;;;;;5071724;27;45881;-48
2022/07/01 14:08:51;;;;;;;;;0.00;0.00;;;;;;;;5072999;27;45428;-48
2022/07/01 14:11:16;;;;;;;;;0.00;0.00;;;;;;;;5072830;28;45605;-48
2022/07/01 14:13:42;;;;;;;;;0.25;0.25;;;;;;;;5071308;28;45578;-49
2022/07/01 14:16:08;;;;;;;;;0.25;0.25;;;;;;;;5067846;27;45892;-51
2022/07/01 14:18:33;;;;;;;;;0.00;0.00;;;;;;;;5086793;27;45934;-48
2022/07/01 14:20:59;;;;;;;;;0.00;0.00;;;;;;;;5071541;27;45562;-48
2022/07/01 14:23:24;;;;;;;;;0.00;0.00;;;;;;;;5070882;28;46857;-47
2022/07/01 14:25:49;;;;;;;;;0.00;0.00;;;;;;;;5070896;28;45419;-48
2022/07/01 14:28:14;;;;;;;;;0.00;0.00;;;;;;;;5062685;27;45887;-48
2022/07/01 14:30:40;;;;;;;;;2.00;1.00;;;;;;;;5071160;27;45482;-47
2022/07/01 14:33:05;;;;;;;;;0.00;0.00;;;;;;;;5072149;28;46553;-50
2022/07/01 14:35:31;;;;;;;;;0.00;0.00;;;;;;;;5072257;28;45355;-49
2022/07/01 14:37:58;;;;;;;;;0.80;0.00;;;;;;;;5072464;27;45443;-47
2022/07/01 14:40:23;;;;;;;;;0.00;0.00;;;;;;;;5072066;27;45449;-50
2022/07/01 14:42:48;;;;;;;;;0.25;0.25;;;;;;;;5070973;27;46033;-51
2022/07/01 14:45:14;;;;;;;;;1.50;1.50;;;;;;;;5072241;28;45494;-47
2022/07/01 14:47:40;;;;;;;;;0.50;0.00;;;;;;;;5072278;27;45365;-47
2022/07/01 14:50:05;;;;;;;;;1.00;0.00;;;;;;;;5070462;28;45408;-48
2022/07/01 14:52:30;;;;;;;;;0.00;0.00;;;;;;;;5071914;28;46650;-51